Time;durP1;ratioP1;P1;durP2;ratioP2;P2;SDS_P1;SDS_P2;PMS_P1;PMS_P2;Temp;Humidity;BMP_temperature;BMP_pressure;BME280_temperature;BME280_humidity;BME280_pressure;Samples;Min_cycle;Max_cycle;Signal;HPM_P1;HPM_P2
2022/07/20 00:04:31;;;;;;;10.25;6.33;;;;;;;24.14;59.20;101121.02;5204883;56;1139400;-67
2022/07/20 00:15:00;;;;;;;6.83;6.12;;;;;;;24.01;60.47;101124.94;5235897;56;1141267;-67
2022/07/20 00:20:06;;;;;;;6.97;5.42;;;;;;;23.89;60.24;101126.99;5235933;56;1139217;-68
2022/07/20 00:25:12;;;;;;;7.35;5.83;;;;;;;23.90;60.53;101133.56;5236082;56;1138891;-67
2022/07/20 00:30:18;;;;;;;11.80;6.72;;;;;;;23.83;60.46;101134.02;5236460;56;1139178;-68
2022/07/20 00:35:24;;;;;;;10.78;6.35;;;;;;;23.76;60.42;101134.44;5236260;56;1141023;-67
2022/07/20 00:40:30;;;;;;;8.83;6.08;;;;;;;23.69;60.86;101129.45;5236293;56;1141560;-68
2022/07/20 00:45:36;;;;;;;9.75;6.72;;;;;;;23.55;60.64;101133.86;5236343;56;1137485;-67
2022/07/20 00:50:42;;;;;;;11.08;5.75;;;;;;;23.37;61.17;101132.06;5236531;56;1136839;-68
2022/07/20 00:55:48;;;;;;;8.65;6.03;;;;;;;23.32;61.46;101131.78;5204315;56;1139343;-66
2022/07/20 01:00:54;;;;;;;9.85;6.80;;;;;;;23.29;61.55;101125.39;5149979;57;1136915;-68
2022/07/20 01:06:00;;;;;;;36.48;8.50;;;;;;;23.20;61.52;101117.08;5159987;56;1136904;-67
2022/07/20 01:11:07;;;;;;;16.73;7.62;;;;;;;23.11;61.64;101116.32;5305483;55;1139380;-67
2022/07/20 01:16:12;;;;;;;15.10;6.08;;;;;;;22.99;62.07;101115.95;5220416;56;1139352;-67
2022/07/20 01:21:19;;;;;;;8.90;6.30;;;;;;;22.75;62.24;101117.03;5156298;56;1139256;-67
2022/07/20 01:26:25;;;;;;;6.58;5.65;;;;;;;22.56;62.64;101119.39;5137793;57;1137063;-66
2022/07/20 01:31:31;;;;;;;8.90;5.65;;;;;;;22.52;63.15;101126.16;5110652;57;1137196;-67
2022/07/20 01:36:37;;;;;;;13.75;6.15;;;;;;;22.51;63.26;101120.44;5141455;57;1137102;-67
2022/07/20 01:41:44;;;;;;;8.43;6.05;;;;;;;22.48;63.89;101120.29;5141557;57;1139237;-66
2022/07/20 01:46:51;;;;;;;16.27;5.50;;;;;;;22.44;64.11;101117.66;5110634;57;1137308;-68
2022/07/20 01:51:57;;;;;;;6.58;5.97;;;;;;;22.33;63.63;101119.41;5141588;57;1139211;-67
2022/07/20 01:57:04;;;;;;;9.08;5.70;;;;;;;22.23;63.98;101117.48;5141381;57;1137211;-67
2022/07/20 02:02:10;;;;;;;15.28;6.47;;;;;;;22.07;63.76;101127.36;5151620;56;1136926;-68
2022/07/20 02:07:15;;;;;;;14.73;6.33;;;;;;;22.04;64.46;101113.40;5177088;56;1138990;-67
2022/07/20 02:12:21;;;;;;;14.05;6.33;;;;;;;22.09;64.51;101109.16;5114458;57;1137036;-67
2022/07/20 02:17:27;;;;;;;10.28;5.95;;;;;;;22.12;64.60;101101.74;5125926;57;1137272;-67
2022/07/20 02:22:33;;;;;;;7.15;5.80;;;;;;;22.15;64.35;101091.96;5216983;56;1141153;-68
2022/07/20 02:27:39;;;;;;;10.23;6.23;;;;;;;22.13;64.07;101096.17;5128010;57;1138984;-67
2022/07/20 02:32:45;;;;;;;15.60;6.03;;;;;;;22.06;63.98;101097.39;5127692;56;1141075;-66
2022/07/20 02:37:51;;;;;;;10.43;6.20;;;;;;;22.00;63.84;101099.44;5127716;57;1141248;-67
2022/07/20 02:42:56;;;;;;;14.58;7.72;;;;;;;21.92;64.03;101101.34;5127939;56;1141060;-67
2022/07/20 02:48:03;;;;;;;8.83;6.60;;;;;;;21.80;64.08;101106.80;5128030;56;1141096;-68
2022/07/20 02:53:15;;;;;;;14.35;6.75;;;;;;;21.63;64.47;101108.75;5128249;56;1138984;-66
2022/07/20 02:58:21;;;;;;;11.80;6.70;;;;;;;21.57;64.77;101110.28;5211842;56;1141063;-67
2022/07/20 03:03:26;;;;;;;13.35;6.62;;;;;;;21.55;65.31;101108.27;5227039;56;1141091;-67
2022/07/20 03:08:32;;;;;;;14.65;6.53;;;;;;;21.51;65.36;101106.97;5227346;56;1141147;-66
2022/07/20 03:13:38;;;;;;;22.82;7.47;;;;;;;21.49;65.37;101114.87;5227027;56;1141136;-67
2022/07/20 03:18:44;;;;;;;25.45;7.47;;;;;;;21.45;65.44;101109.00;5226628;56;1141089;-67
2022/07/20 03:23:50;;;;;;;26.50;6.62;;;;;;;21.38;65.76;101108.05;5216668;56;1141182;-66
2022/07/20 03:28:56;;;;;;;24.87;7.80;;;;;;;21.41;66.00;101107.67;5195012;56;1141212;-66
2022/07/20 03:34:03;;;;;;;8.28;5.37;;;;;;;21.35;65.79;101105.19;5165090;56;1141148;-66
2022/07/20 03:39:09;;;;;;;10.65;6.50;;;;;;;21.24;65.59;101113.62;5206388;56;1139183;-67
2022/07/20 03:44:14;;;;;;;20.60;7.78;;;;;;;21.12;66.18;101104.22;5206442;56;1141127;-68
2022/07/20 03:49:20;;;;;;;28.17;8.48;;;;;;;21.15;66.64;101115.98;5206244;56;1141006;-68
2022/07/20 03:54:26;;;;;;;26.27;7.90;;;;;;;21.17;66.87;101125.23;5205874;56;1141152;-67
2022/07/20 03:59:33;;;;;;;20.30;7.15;;;;;;;21.22;67.24;101127.78;5192880;56;1141343;-66
2022/07/20 04:04:38;;;;;;;11.10;6.30;;;;;;;21.28;67.21;101133.80;5216410;56;1141104;-67
2022/07/20 04:09:46;;;;;;;12.53;5.92;;;;;;;21.35;67.46;101133.95;5170144;57;1141132;-67
2022/07/20 04:14:54;;;;;;;12.53;7.22;;;;;;;21.40;67.38;101139.13;5185725;57;1141219;-68
2022/07/20 04:19:59;;;;;;;15.78;6.33;;;;;;;21.33;67.60;101138.66;5173612;56;1141092;-67
2022/07/20 04:25:06;;;;;;;12.80;6.78;;;;;;;21.31;68.01;101134.80;5206210;57;1141173;-68
2022/07/20 04:30:13;;;;;;;11.93;5.97;;;;;;;21.36;68.64;101139.66;5147031;57;1140998;-66
2022/07/20 04:35:20;;;;;;;19.48;6.97;;;;;;;21.44;69.04;101146.85;5178286;56;1140991;-67
2022/07/20 04:40:26;;;;;;;11.65;7.55;;;;;;;21.52;69.15;101146.83;5206456;56;1141258;-66
2022/07/20 04:45:33;;;;;;;21.05;7.55;;;;;;;21.64;69.54;101150.81;5214853;56;1141203;-66
2022/07/20 04:50:38;;;;;;;13.58;6.90;;;;;;;21.75;69.45;101151.76;5231950;56;1141177;-66
2022/07/20 04:55:45;;;;;;;17.52;6.95;;;;;;;21.84;68.88;101149.37;5209891;56;1141057;-67
2022/07/20 05:00:51;;;;;;;12.65;7.92;;;;;;;21.87;68.53;101147.64;5212138;56;1141145;-66
2022/07/20 05:05:57;;;;;;;19.70;7.62;;;;;;;21.91;68.38;101153.02;5211382;56;1141350;-67
2022/07/20 05:11:02;;;;;;;11.25;7.22;;;;;;;;;;5293982;55;1141085;-66
2022/07/20 05:16:09;;;;;;;16.65;7.03;;;;;;;22.15;68.42;101153.42;5283388;56;819988;-68
2022/07/20 05:21:15;;;;;;;11.50;6.65;;;;;;;22.29;68.03;101165.28;5211234;56;1139183;-68
2022/07/20 05:26:23;;;;;;;11.53;7.75;;;;;;;22.39;67.67;101164.52;5227504;56;1140991;-68
2022/07/20 05:31:28;;;;;;;8.28;6.60;;;;;;;22.50;67.65;101155.16;5227056;56;1141164;-67
2022/07/20 05:36:34;;;;;;;9.92;6.22;;;;;;;22.71;67.69;101158.86;5227601;56;1136924;-66
2022/07/20 05:41:40;;;;;;;10.03;6.30;;;;;;;22.92;67.73;101150.07;5230716;56;1136921;-67
2022/07/20 05:46:45;;;;;;;23.15;7.37;;;;;;;23.18;66.66;101152.34;5227418;56;1139054;-68
2022/07/20 05:51:51;;;;;;;12.50;6.28;;;;;;;23.39;66.84;101155.12;5227219;56;1139030;-67
2022/07/20 05:56:58;;;;;;;9.38;5.65;;;;;;;23.65;65.83;101160.08;5281079;55;1138956;-67
2022/07/20 06:02:03;;;;;;;12.10;6.03;;;;;;;23.88;65.37;101160.44;5239174;55;1137097;-66
2022/07/20 06:07:09;;;;;;;12.33;5.85;;;;;;;24.08;65.09;101164.21;5262261;55;1139126;-67
2022/07/20 06:12:15;;;;;;;10.72;5.50;;;;;;;24.32;65.01;101161.67;5316377;55;1139061;-68
2022/07/20 06:17:21;;;;;;;11.22;6.22;;;;;;;24.52;64.81;101152.72;5251962;55;1139175;-67
2022/07/20 06:22:27;;;;;;;7.17;4.90;;;;;;;24.82;63.61;101158.80;5225277;56;1139046;-67
2022/07/20 06:27:33;;;;;;;12.30;4.65;;;;;;;25.06;61.27;101162.10;5179797;56;1136947;-67
2022/07/20 06:32:40;;;;;;;12.68;5.08;;;;;;;25.27;59.68;101162.04;5215376;56;1139051;-68
2022/07/20 06:37:45;;;;;;;9.38;5.67;;;;;;;25.45;57.93;101163.70;5207375;56;1139067;-66
2022/07/20 06:42:51;;;;;;;12.70;4.92;;;;;;;25.63;58.92;101167.78;5202516;56;1136995;-67
2022/07/20 06:47:58;;;;;;;7.97;4.67;;;;;;;25.84;57.81;101169.83;5174766;56;1139000;-68
2022/07/20 06:53:03;;;;;;;8.85;5.00;;;;;;;26.04;57.86;101169.91;5173887;56;1137210;-68
2022/07/20 06:58:09;;;;;;;8.15;4.92;;;;;;;26.24;58.12;101177.58;5159402;56;1136981;-67
2022/07/20 07:03:15;;;;;;;8.58;4.03;;;;;;;26.50;57.73;101174.09;5168288;56;1136953;-67
2022/07/20 07:08:21;;;;;;;17.50;4.83;;;;;;;26.69;54.80;101169.72;5185349;56;1135049;-66
2022/07/20 07:13:26;;;;;;;27.87;5.75;;;;;;;26.86;55.54;101168.78;5217098;56;1136994;-66
2022/07/20 07:18:32;;;;;;;9.60;4.87;;;;;;;27.11;55.80;101164.91;5237066;56;21132;-68
2022/07/20 07:23:39;;;;;;;13.70;5.17;;;;;;;27.39;54.57;101160.03;5224612;55;1134871;-68
2022/07/20 07:28:45;;;;;;;7.07;4.23;;;;;;;27.65;54.40;101162.67;5325575;55;1141021;-69
2022/07/20 07:33:51;;;;;;;4.53;4.13;;;;;;;27.94;52.93;101162.67;5267411;55;1138896;-68
2022/07/20 07:38:56;;;;;;;10.07;4.43;;;;;;;28.23;53.06;101164.52;4973819;58;1138935;-67
2022/07/20 07:57:46;;;;;;;6.47;4.30;;;;;;;28.65;46.99;101171.94;5375688;55;46736;-68
2022/07/20 08:02:51;;;;;;;4.65;4.20;;;;;;;28.81;46.11;101159.69;5126035;57;1134805;-66
2022/07/20 08:07:57;;;;;;;4.85;4.42;;;;;;;29.00;46.43;101161.92;5175980;57;1139030;-66
2022/07/20 08:13:04;;;;;;;6.12;4.00;;;;;;;29.19;44.57;101151.86;5150171;56;1139115;-68
2022/07/20 08:18:10;;;;;;;11.53;4.72;;;;;;;29.36;45.13;101144.75;5211568;56;1138983;-67
2022/07/20 08:23:16;;;;;;;6.75;5.35;;;;;;;29.62;44.70;101145.02;5227324;56;1141104;-68
2022/07/20 08:28:23;;;;;;;9.18;4.53;;;;;;;29.73;43.70;101142.88;5226043;56;1139204;-67
2022/07/20 08:33:30;;;;;;;6.20;4.60;;;;;;;29.89;42.50;101144.12;5218704;56;1139168;-67
2022/07/20 08:38:36;;;;;;;7.20;4.65;;;;;;;30.06;42.16;101146.54;5217217;56;1139137;-68
2022/07/20 08:43:42;;;;;;;5.83;4.30;;;;;;;30.29;42.59;101153.42;5210974;56;1139097;-67
2022/07/20 08:48:49;;;;;;;5.40;4.10;;;;;;;30.47;41.60;101149.78;5076356;58;1139019;-68
2022/07/20 08:53:57;;;;;;;8.73;4.75;;;;;;;30.67;40.69;101146.77;5088553;57;1139162;-68
2022/07/20 08:59:03;;;;;;;7.67;4.22;;;;;;;30.93;39.81;101141.36;5126336;57;1139575;-68
2022/07/20 09:04:12;;;;;;;9.80;4.00;;;;;;;31.14;39.97;101147.62;5140110;57;1139072;-67
2022/07/20 09:09:20;;;;;;;18.98;3.58;;;;;;;31.32;38.88;101152.91;5137853;57;1139052;-68
2022/07/20 09:14:48;;;;;;;9.35;4.55;;;;;;;31.47;35.80;101145.60;5137712;57;1141146;-66
2022/07/20 09:20:07;;;;;;;9.93;3.65;;;;;;;31.62;37.27;101134.14;5137791;57;1139091;-69
2022/07/20 09:25:18;;;;;;;6.37;3.90;;;;;;;31.80;36.04;101138.06;5138475;57;1139049;-68
2022/07/20 09:30:24;;;;;;;7.62;3.33;;;;;;;31.91;34.14;101133.10;5125039;57;1139059;-68
2022/07/20 09:35:36;;;;;;;8.55;4.05;;;;;;;31.96;35.94;101133.18;5137919;57;1139013;-69
2022/07/20 09:40:47;;;;;;;5.12;4.03;;;;;;;32.19;36.02;101132.78;5137847;57;1139070;-69
2022/07/20 09:45:56;;;;;;;9.45;4.03;;;;;;;32.46;35.46;101137.92;5087224;57;1136981;-67
2022/07/20 09:51:02;;;;;;;6.10;4.25;;;;;;;32.61;31.75;101134.06;5107578;57;1136945;-69
2022/07/20 09:56:08;;;;;;;6.72;4.20;;;;;;;32.72;32.69;101131.80;5105677;57;1136999;-68
2022/07/20 10:01:18;;;;;;;3.95;3.55;;;;;;;32.77;33.01;101127.77;5005200;58;1137040;-68
2022/07/20 10:06:26;;;;;;;10.15;3.37;;;;;;;32.81;32.33;101121.26;4983860;58;1136987;-68
2022/07/20 10:11:32;;;;;;;10.80;4.17;;;;;;;32.84;32.55;101112.00;4958559;59;1139067;-67
2022/07/20 10:16:53;;;;;;;5.03;3.77;;;;;;;33.09;31.35;101111.52;5016518;58;1139010;-67
2022/07/20 10:22:00;;;;;;;24.67;4.70;;;;;;;33.15;32.96;101103.62;5041326;58;1136887;-67
2022/07/20 10:27:10;;;;;;;8.30;5.17;;;;;;;33.45;33.30;101113.38;5011339;58;1139182;-67
2022/07/20 10:32:25;;;;;;;4.75;3.75;;;;;;;33.65;30.82;101102.63;4920403;59;1136963;-68
2022/07/20 10:37:38;;;;;;;9.75;4.42;;;;;;;33.72;31.72;101108.75;4917025;60;1134950;-68
2022/07/20 10:42:50;;;;;;;14.07;4.80;;;;;;;33.88;31.56;101102.37;4916579;60;1138934;-68
2022/07/20 10:48:14;;;;;;;10.37;4.57;;;;;;;34.07;29.34;101097.30;4917020;59;1141077;-66
2022/07/20 10:53:28;;;;;;;5.83;4.33;;;;;;;34.20;27.94;101094.70;4925856;59;1141052;-67
2022/07/20 10:58:38;;;;;;;9.50;4.45;;;;;;;34.33;29.08;101093.46;5050608;57;1139169;-67
2022/07/20 11:03:49;;;;;;;4.63;4.20;;;;;;;34.25;30.26;101097.47;5138393;57;1139569;-67
2022/07/20 11:08:58;;;;;;;6.10;4.25;;;;;;;34.38;29.54;101090.73;5137513;57;1139052;-69
2022/07/20 11:14:06;;;;;;;12.40;4.20;;;;;;;34.38;29.79;101087.44;5139889;57;1139080;-69
2022/07/20 11:19:13;;;;;;;12.73;4.10;;;;;;;34.54;30.76;101091.95;5140407;57;1141362;-68
2022/07/20 11:24:30;;;;;;;6.75;4.12;;;;;;;34.69;30.31;101089.86;5139942;57;1141241;-67
2022/07/20 11:29:40;;;;;;;7.75;4.33;;;;;;;34.72;29.50;101096.75;5140379;57;1139063;-67
2022/07/20 11:34:48;;;;;;;;;;;;;;;34.75;30.16;101094.30;5117176;57;1138982;-66
2022/07/20 11:39:53;;;;;;;9.70;4.33;;;;;;;34.73;27.81;101088.24;5034454;58;976500;-69
2022/07/20 11:45:05;;;;;;;15.38;4.50;;;;;;;34.81;28.28;101084.21;5069621;57;1136940;-69
2022/07/20 11:50:12;;;;;;;5.17;4.60;;;;;;;35.06;28.45;101090.38;5069495;57;1141333;-67
2022/07/20 11:55:18;;;;;;;10.40;4.92;;;;;;;35.36;27.98;101075.96;5032758;58;1139135;-67
2022/07/20 12:00:27;;;;;;;21.93;11.28;;;;;;;35.55;29.16;101066.12;5059379;58;1141211;-67
2022/07/20 12:05:34;;;;;;;21.77;17.02;;;;;;;35.71;25.47;101062.84;5058107;58;1143312;-67
2022/07/20 12:10:44;;;;;;;12.33;5.80;;;;;;;35.82;26.43;101059.03;5057334;58;1143134;-66
2022/07/20 12:16:06;;;;;;;8.35;4.78;;;;;;;35.83;25.89;101064.27;5051810;58;1141262;-66
2022/07/20 12:21:18;;;;;;;7.87;5.40;;;;;;;35.91;28.02;101057.37;5057589;58;1139024;-67
2022/07/20 12:26:32;;;;;;;7.20;4.72;;;;;;;36.03;26.59;101055.75;5057799;58;1137290;-68
2022/07/20 12:31:37;;;;;;;7.20;4.92;;;;;;;36.10;26.53;101059.05;5057801;58;1136962;-68
2022/07/20 12:36:52;;;;;;;11.85;4.90;;;;;;;36.15;24.96;101053.00;5046425;58;1137078;-66
2022/07/20 12:42:18;;;;;;;11.75;8.48;;;;;;;36.13;25.26;101054.37;4992665;58;1139340;-68
2022/07/20 12:47:23;;;;;;;38.43;28.67;;;;;;;36.19;24.62;101049.97;4978291;59;1139134;-67
2022/07/20 12:52:30;;;;;;;15.00;6.85;;;;;;;36.21;25.38;101050.49;4934642;59;1141562;-67
2022/07/20 12:57:36;;;;;;;7.00;4.65;;;;;;;36.29;26.26;101043.65;4896411;59;1139177;-66
2022/07/20 13:02:42;;;;;;;8.65;5.37;;;;;;;36.48;26.64;101039.77;5049264;58;1136946;-66
2022/07/20 13:07:48;;;;;;;18.37;6.30;;;;;;;36.60;25.57;101031.47;4970658;58;1137001;-67
2022/07/20 13:12:56;;;;;;;13.48;4.83;;;;;;;36.71;24.18;101034.22;4965104;59;1137270;-67
2022/07/20 13:18:02;;;;;;;7.20;5.00;;;;;;;36.68;25.57;101024.54;4959110;59;1137105;-66
2022/07/20 13:23:08;;;;;;;7.75;5.20;;;;;;;36.81;25.94;101028.14;4970674;59;21114;-69
2022/07/20 13:28:15;;;;;;;8.65;5.20;;;;;;;36.95;22.91;101020.08;4951295;59;1134978;-66
2022/07/20 13:33:21;;;;;;;6.53;5.90;;;;;;;36.95;22.91;101020.08;4951030;59;1139134;-66
2022/07/20 13:38:27;;;;;;;7.33;4.78;;;;;;;36.88;24.52;101012.10;4969266;58;1139053;-67
2022/07/20 13:43:34;;;;;;;8.55;4.92;;;;;;;36.93;22.92;101018.98;5044499;58;1139147;-66
2022/07/20 13:48:43;;;;;;;11.50;4.87;;;;;;;36.92;24.46;101020.09;4983458;58;1139066;-67
2022/07/20 13:53:49;;;;;;;14.55;4.78;;;;;;;36.96;24.13;101009.33;5097828;57;1141409;-66
2022/07/20 13:58:55;;;;;;;7.87;5.47;;;;;;;37.06;22.69;101006.51;5124463;57;1140584;-68
2022/07/20 14:04:01;;;;;;;10.05;5.72;;;;;;;36.91;22.16;101002.45;5135508;57;1138964;-67
2022/07/20 14:09:08;;;;;;;7.28;5.47;;;;;;;36.85;22.38;101015.97;5135405;57;1141394;-66
2022/07/20 14:14:14;;;;;;;13.55;5.53;;;;;;;36.87;22.80;101006.31;5150084;57;1139071;-69
2022/07/20 14:19:20;;;;;;;9.05;5.80;;;;;;;36.94;24.28;101010.98;5149895;57;1141386;-68
2022/07/20 14:24:26;;;;;;;10.75;5.70;;;;;;;37.10;23.99;101006.77;5150001;57;1139153;-66
2022/07/20 14:29:32;;;;;;;9.53;5.22;;;;;;;37.17;23.36;100993.48;5149994;57;1141459;-66
2022/07/20 14:34:38;;;;;;;11.57;5.22;;;;;;;37.13;22.15;100990.45;4993433;57;1139518;-68
2022/07/20 14:39:45;;;;;;;10.85;5.17;;;;;;;37.06;22.08;100992.72;4950078;58;1141145;-66
2022/07/20 14:44:50;;;;;;;7.70;4.80;;;;;;;37.06;22.23;100996.86;4905666;59;1141347;-69
2022/07/20 14:49:56;;;;;;;6.58;4.72;;;;;;;37.08;22.94;100982.78;4900225;60;1139126;-69
2022/07/20 14:55:01;;;;;;;6.80;5.30;;;;;;;37.18;22.69;100975.30;4901127;59;1139306;-68
2022/07/20 15:00:08;;;;;;;8.48;5.67;;;;;;;37.25;21.75;100971.69;4996469;57;1139353;-68
2022/07/20 15:05:14;;;;;;;10.28;5.60;;;;;;;37.22;21.76;100973.63;5029424;57;1139277;-67
2022/07/20 15:10:20;;;;;;;9.03;5.72;;;;;;;37.07;22.05;100966.79;5029548;58;1141213;-68
2022/07/20 15:15:27;;;;;;;8.85;4.65;;;;;;;37.01;21.52;100963.78;5044235;58;1139101;-68
2022/07/20 15:20:33;;;;;;;6.35;5.00;;;;;;;36.90;21.56;100958.87;5048753;58;1139132;-67
2022/07/20 15:25:39;;;;;;;5.67;4.55;;;;;;;36.77;21.06;100968.32;5055167;58;1139143;-67
2022/07/20 15:30:46;;;;;;;8.65;3.80;;;;;;;36.79;21.19;100961.42;5010234;57;1139043;-67
2022/07/20 15:35:52;;;;;;;5.40;4.55;;;;;;;36.81;22.21;100959.77;4999757;58;1139432;-66
2022/07/20 15:40:58;;;;;;;11.15;5.03;;;;;;;36.91;21.53;100957.77;5042533;58;1139058;-67
2022/07/20 15:46:05;;;;;;;5.92;5.12;;;;;;;36.92;22.29;100947.02;5050266;58;1141146;-68
2022/07/20 15:51:11;;;;;;;10.43;5.78;;;;;;;37.00;22.36;100945.58;5045891;57;1138922;-69
2022/07/20 15:56:17;;;;;;;14.58;5.15;;;;;;;36.84;21.34;100928.84;5070645;57;1141357;-68
2022/07/20 16:01:23;;;;;;;8.13;4.45;;;;;;;36.83;21.55;100937.67;5143816;56;1141213;-68
2022/07/20 16:06:28;;;;;;;8.83;5.03;;;;;;;36.79;21.26;100928.34;5197658;56;1139059;-67
2022/07/20 16:11:34;;;;;;;9.08;5.65;;;;;;;36.72;21.60;100922.84;5186501;56;1139234;-68
2022/07/20 16:16:40;;;;;;;13.55;5.97;;;;;;;36.58;22.29;100916.55;5194697;56;1139196;-70
2022/07/20 16:21:47;;;;;;;8.43;5.35;;;;;;;36.60;22.22;100922.60;5227479;56;1141325;-67
2022/07/20 16:26:54;;;;;;;8.10;5.17;;;;;;;36.56;22.62;100918.75;5164487;56;1139092;-69
2022/07/20 16:32:00;;;;;;;20.57;6.50;;;;;;;36.48;22.61;100913.02;5104411;57;1139236;-69
2022/07/20 16:37:07;;;;;;;16.97;5.97;;;;;;;36.42;23.34;100904.48;5118125;56;1141116;-69
2022/07/20 16:42:12;;;;;;;9.30;5.00;;;;;;;36.38;23.51;100903.39;5104111;57;1139467;-67
2022/07/20 16:47:18;;;;;;;14.85;4.70;;;;;;;36.22;24.43;100911.67;5141446;57;1137119;-69
2022/07/20 16:52:24;;;;;;;12.20;5.35;;;;;;;36.07;25.25;100915.84;5134786;57;1138944;-68
2022/07/20 16:57:30;;;;;;;12.55;8.15;;;;;;;35.95;25.48;100917.52;5147258;57;1138998;-69
2022/07/20 17:02:36;;;;;;;9.40;6.10;;;;;;;35.91;25.88;100916.42;5207552;56;1139049;-68
2022/07/20 17:07:42;;;;;;;13.65;5.65;;;;;;;35.90;25.89;100916.14;5185222;56;1136919;-68
2022/07/20 17:12:48;;;;;;;14.73;6.12;;;;;;;35.81;26.83;100914.23;5132893;57;1139054;-68
2022/07/20 17:17:54;;;;;;;10.20;4.62;;;;;;;35.67;26.69;100916.70;5134639;56;1139083;-68
2022/07/20 17:23:00;;;;;;;8.63;5.03;;;;;;;35.57;27.01;100908.45;5208365;56;1138966;-68
2022/07/20 17:28:06;;;;;;;13.40;5.08;;;;;;;35.53;27.43;100905.97;5170842;56;1137291;-69
2022/07/20 17:33:12;;;;;;;9.13;5.67;;;;;;;35.43;27.27;100898.55;5146768;56;1139091;-69
2022/07/20 17:38:18;;;;;;;10.35;4.53;;;;;;;35.31;27.25;100903.48;5141493;57;1137035;-69
2022/07/20 17:43:23;;;;;;;14.23;4.92;;;;;;;35.21;27.54;100910.31;5227280;56;1139036;-68
2022/07/20 17:48:29;;;;;;;6.70;4.62;;;;;;;35.12;27.86;100905.92;5227447;56;1139155;-67
2022/07/20 17:53:35;;;;;;;14.87;4.95;;;;;;;34.95;28.38;100899.83;5199446;56;1137248;-69
2022/07/20 17:58:41;;;;;;;16.82;5.50;;;;;;;34.81;29.28;100898.70;5214182;56;1139149;-68
2022/07/20 18:03:46;;;;;;;12.47;5.17;;;;;;;34.63;29.60;100899.98;5231951;56;1139054;-69
2022/07/20 18:08:52;;;;;;;18.32;4.40;;;;;;;34.38;29.94;100896.55;5222554;56;1139006;-68
2022/07/20 18:13:58;;;;;;;15.35;5.30;;;;;;;34.16;30.37;100890.38;5220682;56;1137047;-69
2022/07/20 18:19:05;;;;;;;18.60;5.97;;;;;;;34.00;30.58;100901.81;5175600;56;1136994;-68
2022/07/20 18:24:10;;;;;;;8.38;4.62;;;;;;;33.82;31.08;100903.61;5192457;56;1140925;-70
2022/07/20 18:29:16;;;;;;;13.76;5.30;;;;;;;33.63;31.38;100897.67;5194525;56;1139348;-68
2022/07/20 18:34:22;;;;;;;12.18;4.67;;;;;;;33.45;31.70;100899.47;5165332;56;1141307;-68
2022/07/20 18:39:28;;;;;;;10.60;4.77;;;;;;;33.30;32.12;100905.64;5164641;57;1141092;-69
2022/07/20 18:44:33;;;;;;;10.20;5.58;;;;;;;33.16;32.51;100909.28;5164483;57;1141094;-68
2022/07/20 18:49:40;;;;;;;9.50;4.85;;;;;;;33.02;32.74;100920.91;5164680;56;1141167;-68
2022/07/20 18:54:46;;;;;;;21.05;8.43;;;;;;;32.92;32.99;100920.27;5231749;56;1139025;-68
2022/07/20 18:59:52;;;;;;;27.52;10.20;;;;;;;32.82;33.15;100927.02;5251252;56;1141404;-68
2022/07/20 19:04:58;;;;;;;11.93;6.10;;;;;;;32.68;34.20;100929.29;5233822;56;1143339;-68
2022/07/20 19:10:04;;;;;;;19.25;5.22;;;;;;;32.48;34.21;100937.23;5216652;56;1141477;-67
2022/07/20 19:15:10;;;;;;;7.67;5.47;;;;;;;32.35;34.39;100932.96;5105000;57;1141177;-69
2022/07/20 19:20:16;;;;;;;13.60;4.95;;;;;;;32.23;34.52;100935.53;5105029;57;1139092;-67
2022/07/20 19:25:23;;;;;;;9.03;4.90;;;;;;;32.06;35.00;100949.20;5134179;56;1141668;-67
2022/07/20 19:30:28;;;;;;;8.83;4.40;;;;;;;31.91;35.33;100952.53;5137206;56;1139330;-67
2022/07/20 19:35:35;;;;;;;11.65;4.95;;;;;;;31.75;35.44;100953.35;5130923;57;1139436;-68
2022/07/20 19:40:41;;;;;;;8.55;4.35;;;;;;;31.58;35.82;100951.11;5104961;57;1141428;-67
2022/07/20 19:45:47;;;;;;;6.53;4.87;;;;;;;31.43;35.86;100953.87;5130807;57;1139043;-69
2022/07/20 19:50:53;;;;;;;12.80;5.37;;;;;;;31.29;36.12;100951.69;5130957;57;1139036;-69
2022/07/20 19:55:59;;;;;;;7.53;5.40;;;;;;;31.11;36.12;100943.15;5180274;56;1141078;-67
2022/07/20 20:01:06;;;;;;;13.18;5.33;;;;;;;30.94;36.39;100948.52;5162165;56;1138988;-68
2022/07/20 20:06:12;;;;;;;5.05;4.60;;;;;;;30.83;36.71;100946.67;5169153;56;1141292;-66
2022/07/20 20:11:19;;;;;;;10.68;4.72;;;;;;;30.71;36.83;100945.84;5162123;56;1138981;-69
2022/07/20 20:16:25;;;;;;;5.78;5.17;;;;;;;30.64;37.02;100942.44;5163040;57;1141215;-69
2022/07/20 20:21:30;;;;;;;5.60;4.85;;;;;;;30.52;37.00;100940.23;5162119;57;1138883;-68
2022/07/20 20:26:38;;;;;;;10.28;5.50;;;;;;;30.37;37.34;100944.83;5198746;56;1139220;-69
2022/07/20 20:31:44;;;;;;;9.10;5.42;;;;;;;30.25;37.51;100933.90;5250140;56;1141095;-68
2022/07/20 20:36:49;;;;;;;5.78;4.62;;;;;;;30.09;37.81;100937.38;5251076;56;1139006;-68
2022/07/20 20:41:55;;;;;;;7.85;4.90;;;;;;;29.98;37.98;100940.38;5250954;56;1139323;-68
2022/07/20 20:47:01;;;;;;;6.60;4.97;;;;;;;29.89;38.18;100945.03;5250949;56;1138997;-68
2022/07/20 20:52:07;;;;;;;11.38;4.60;;;;;;;29.84;38.33;100944.36;5230049;56;1138961;-68
2022/07/20 20:57:13;;;;;;;7.60;5.05;;;;;;;29.76;38.62;100946.63;5245060;56;1141104;-68
2022/07/20 21:02:19;;;;;;;6.95;5.15;;;;;;;29.64;38.87;100939.23;5251193;56;1139180;-68
2022/07/20 21:07:25;;;;;;;8.78;4.78;;;;;;;29.45;39.08;100947.73;5188516;56;1139038;-67
2022/07/20 21:12:33;;;;;;;7.30;5.33;;;;;;;29.29;39.81;100947.30;5157815;57;1139165;-68
2022/07/20 21:17:38;;;;;;;7.22;4.60;;;;;;;29.19;39.93;100944.81;5164945;57;1139519;-68
2022/07/20 21:22:44;;;;;;;5.35;4.83;;;;;;;29.00;40.48;100942.16;5164721;57;1139387;-67
2022/07/20 21:27:50;;;;;;;9.58;4.95;;;;;;;28.90;40.50;100948.66;5164802;57;1138970;-67
2022/07/20 21:32:57;;;;;;;8.40;5.37;;;;;;;28.84;40.89;100940.06;5155093;57;1139194;-67
2022/07/20 21:38:04;;;;;;;8.18;5.22;;;;;;;28.75;41.05;100937.30;5153629;57;1139011;-66
2022/07/20 21:43:11;;;;;;;7.65;5.03;;;;;;;28.66;41.20;100950.39;5150681;57;1137349;-68
2022/07/20 21:48:18;;;;;;;9.58;4.50;;;;;;;28.60;41.38;100950.45;5165227;57;1137218;-67
2022/07/20 21:53:24;;;;;;;9.63;4.53;;;;;;;28.44;41.78;100942.36;5207050;56;1136972;-70
2022/07/20 21:58:30;;;;;;;7.90;4.55;;;;;;;28.38;41.82;100941.09;5251362;56;1137103;-67
2022/07/20 22:03:37;;;;;;;9.73;4.67;;;;;;;28.24;42.03;100938.52;5189108;56;1136962;-67
2022/07/20 22:08:43;;;;;;;11.25;5.72;;;;;;;28.08;42.58;100937.70;5140568;57;1137036;-68
2022/07/20 22:13:48;;;;;;;7.95;4.55;;;;;;;27.92;42.93;100943.17;5130928;57;1139054;-67
2022/07/20 22:18:54;;;;;;;14.30;5.15;;;;;;;27.79;43.32;100948.73;5131068;57;1137307;-68
2022/07/20 22:24:00;;;;;;;9.28;4.90;;;;;;;27.70;43.37;100936.44;5130994;57;1139252;-68
2022/07/20 22:29:06;;;;;;;8.05;4.58;;;;;;;27.65;43.71;100942.53;5131063;57;1137324;-68
2022/07/20 22:34:13;;;;;;;6.53;4.85;;;;;;;27.50;44.10;100943.34;5131008;57;1137046;-68
2022/07/20 22:39:20;;;;;;;6.67;3.98;;;;;;;27.38;44.32;100945.63;5130759;56;1137038;-67
2022/07/20 22:44:26;;;;;;;8.25;4.70;;;;;;;27.35;44.44;100956.40;5130016;57;1137014;-69
2022/07/20 22:49:32;;;;;;;6.45;4.95;;;;;;;27.24;44.56;100947.06;5130476;56;1137564;-69
2022/07/20 22:54:38;;;;;;;5.50;4.35;;;;;;;27.12;44.97;100952.89;5166943;56;1137085;-69
2022/07/20 22:59:44;;;;;;;11.15;4.65;;;;;;;27.04;45.24;100953.13;5157530;56;1137299;-68
2022/07/20 23:04:50;;;;;;;6.87;4.67;;;;;;;26.94;45.55;100954.12;5130981;57;1139623;-69
2022/07/20 23:09:56;;;;;;;5.72;4.67;;;;;;;26.80;45.73;100948.41;5156685;57;1136905;-69
2022/07/20 23:15:02;;;;;;;6.30;4.80;;;;;;;26.74;46.01;100949.25;5164328;57;1134827;-68
2022/07/20 23:20:12;;;;;;;5.92;4.75;;;;;;;26.68;46.01;100963.70;5202758;56;21169;-68
2022/07/20 23:25:18;;;;;;;10.67;4.57;;;;;;;26.65;46.21;100965.47;5214005;56;1134948;-68
2022/07/20 23:30:24;;;;;;;7.92;5.10;;;;;;;26.57;46.19;100960.61;5251258;56;1141102;-67